createdAt,value
2019-03-24T00:00:26.015Z,1024.09
2019-03-24T00:00:52.148Z,1024.05
2019-03-24T00:01:18.258Z,1024.08
2019-03-24T00:01:46.347Z,1024.05
2019-03-24T00:02:12.483Z,1024.03
2019-03-24T00:02:38.591Z,1024.08
2019-03-24T00:03:04.702Z,1024.04
2019-03-24T00:03:30.801Z,1024.04
2019-03-24T00:03:56.913Z,1024.11
2019-03-24T00:04:23.020Z,1024.09
2019-03-24T00:04:49.130Z,1024.08
2019-03-24T00:05:15.237Z,1024.1
2019-03-24T00:05:41.348Z,1024.07
2019-03-24T00:06:07.460Z,1024.1
2019-03-24T00:06:33.564Z,1024.1
2019-03-24T00:06:59.678Z,1024.08
2019-03-24T00:07:25.783Z,1024.09
2019-03-24T00:07:51.921Z,1024.1
2019-03-24T00:08:18.053Z,1024.09
2019-03-24T00:08:44.161Z,1024.12
2019-03-24T00:09:10.271Z,1024.13
2019-03-24T00:09:36.374Z,1024.1
2019-03-24T00:10:02.483Z,1024.1
2019-03-24T00:10:28.589Z,1024.1
2019-03-24T00:10:54.693Z,1024.11
2019-03-24T00:11:20.799Z,1024.11
2019-03-24T00:11:46.908Z,1024.1
2019-03-24T00:12:13.023Z,1024.09
2019-03-24T00:12:39.154Z,1024.08
2019-03-24T00:13:05.265Z,1024.06
2019-03-24T00:13:31.364Z,1024.08
2019-03-24T00:13:57.467Z,1024.05
2019-03-24T00:14:23.578Z,1024.05
2019-03-24T00:14:49.680Z,1024.03
2019-03-24T00:15:25.600Z,1024.01
2019-03-24T00:15:43.905Z,1024.04
2019-03-24T00:16:10.045Z,1024.02
2019-03-24T00:16:36.146Z,1023.99
2019-03-24T00:17:02.283Z,1024.02
2019-03-24T00:17:28.387Z,1024.02
2019-03-24T00:17:54.529Z,1023.99
2019-03-24T00:18:20.667Z,1023.97
2019-03-24T00:18:46.772Z,1023.98
2019-03-24T00:19:12.907Z,1023.99
2019-03-24T00:19:39.012Z,1024.03
2019-03-24T00:20:05.124Z,1024.03
2019-03-24T00:20:31.392Z,1024.02
2019-03-24T00:20:57.506Z,1024.06
2019-03-24T00:21:23.607Z,1024.02
2019-03-24T00:21:49.716Z,1024.02
2019-03-24T00:22:15.825Z,1023.99
2019-03-24T00:22:41.934Z,1024.07
2019-03-24T00:23:08.041Z,1024.03
2019-03-24T00:23:34.142Z,1024.02
2019-03-24T00:24:00.251Z,1024.01
2019-03-24T00:24:26.390Z,1024.01
2019-03-24T00:24:52.494Z,1024.03
2019-03-24T00:25:18.601Z,1023.98
2019-03-24T00:25:44.711Z,1023.96
2019-03-24T00:26:10.826Z,1024.02
2019-03-24T00:26:37.929Z,1024.03
2019-03-24T00:27:04.054Z,1024.04
2019-03-24T00:27:30.194Z,1024
2019-03-24T00:27:56.360Z,1024.05
2019-03-24T00:28:22.501Z,1024.01
2019-03-24T00:28:48.603Z,1024.02
2019-03-24T00:29:14.713Z,1024.03
2019-03-24T00:29:40.820Z,1024.04
2019-03-24T00:30:06.981Z,1024.04
2019-03-24T00:30:33.070Z,1024.08
2019-03-24T00:30:59.184Z,1024.09
2019-03-24T00:31:25.292Z,1024.07
2019-03-24T00:31:51.393Z,1024.07
2019-03-24T00:32:17.503Z,1024.09
2019-03-24T00:32:43.610Z,1024.04
2019-03-24T00:33:09.720Z,1024.07
2019-03-24T00:33:35.822Z,1024.08
2019-03-24T00:34:01.960Z,1024.1
2019-03-24T00:34:28.066Z,1024.08
2019-03-24T00:34:54.182Z,1024.08
2019-03-24T00:35:20.314Z,1024.08
2019-03-24T00:35:46.423Z,1024.06
2019-03-24T00:36:12.530Z,1024.06
2019-03-24T00:36:38.663Z,1024.04
2019-03-24T00:37:04.772Z,1024.05
2019-03-24T00:37:30.877Z,1024.03
2019-03-24T00:37:56.992Z,1024.05
2019-03-24T00:38:23.103Z,1024.06
2019-03-24T00:38:49.208Z,1024.07
2019-03-24T00:39:15.339Z,1024.06
2019-03-24T00:39:41.442Z,1024.06
2019-03-24T00:40:07.560Z,1024.07
2019-03-24T00:40:33.656Z,1024.08
2019-03-24T00:40:59.764Z,1024.09
2019-03-24T00:41:25.874Z,1024.1
2019-03-24T00:41:51.983Z,1024.1
2019-03-24T00:42:18.105Z,1024.07
2019-03-24T00:42:44.216Z,1024.11
2019-03-24T00:43:10.320Z,1024.1
2019-03-24T00:43:36.426Z,1024.1
2019-03-24T00:44:02.553Z,1024.1
2019-03-24T00:44:28.665Z,1024.09
2019-03-24T00:44:54.774Z,1024.08
2019-03-24T00:45:20.873Z,1024.07
2019-03-24T00:45:47.998Z,1024.12
2019-03-24T00:46:14.100Z,1024.05
2019-03-24T00:46:40.211Z,1024.09
2019-03-24T00:47:06.321Z,1024.09
2019-03-24T00:47:32.427Z,1024.11
2019-03-24T00:47:59.526Z,1024.07
2019-03-24T00:48:25.662Z,1024.08
2019-03-24T00:48:51.797Z,1024.12
2019-03-24T00:49:17.907Z,1024.12
2019-03-24T00:49:44.038Z,1024.11
2019-03-24T00:50:10.146Z,1024.15
2019-03-24T00:50:36.279Z,1024.09
2019-03-24T00:51:02.393Z,1024.12
2019-03-24T00:51:28.501Z,1024.12
2019-03-24T00:51:54.628Z,1024.09
2019-03-24T00:52:20.734Z,1024.06
2019-03-24T00:52:46.844Z,1024.07
2019-03-24T00:53:12.949Z,1024.09
2019-03-24T00:53:39.051Z,1024.08
2019-03-24T00:54:05.161Z,1024.08
2019-03-24T00:54:31.266Z,1024.06
2019-03-24T00:54:57.378Z,1024.04
2019-03-24T00:55:23.484Z,1024.05
2019-03-24T00:55:49.596Z,1024.06
2019-03-24T00:56:15.699Z,1024.04
2019-03-24T00:56:41.825Z,1024.01
2019-03-24T00:57:07.938Z,1024
2019-03-24T00:57:34.076Z,1023.97
2019-03-24T00:58:00.182Z,1024.01
2019-03-24T00:58:26.289Z,1024.01
2019-03-24T00:58:52.393Z,1024.03
2019-03-24T00:59:18.495Z,1024
2019-03-24T00:59:44.604Z,1023.99
2019-03-24T01:00:10.860Z,1023.98
2019-03-24T01:00:36.968Z,1023.99
2019-03-24T01:01:03.114Z,1023.99
2019-03-24T01:01:29.249Z,1023.96
2019-03-24T01:01:55.359Z,1024.02
2019-03-24T01:02:21.492Z,1023.99
2019-03-24T01:02:47.636Z,1023.99
2019-03-24T01:03:13.768Z,1023.97
2019-03-24T01:03:39.902Z,1023.98
2019-03-24T01:04:06.011Z,1023.95
2019-03-24T01:04:32.115Z,1023.99
2019-03-24T01:04:58.224Z,1023.94
2019-03-24T01:05:24.359Z,1023.98
2019-03-24T01:05:50.473Z,1023.96
2019-03-24T01:06:16.612Z,1023.97
2019-03-24T01:06:42.713Z,1023.95
2019-03-24T01:07:08.854Z,1023.93
2019-03-24T01:07:34.996Z,1023.92
2019-03-24T01:08:01.098Z,1023.93
2019-03-24T01:08:27.264Z,1023.94
2019-03-24T01:08:53.386Z,1023.91
2019-03-24T01:09:19.496Z,1023.92
2019-03-24T01:09:45.632Z,1023.93
2019-03-24T01:10:11.743Z,1023.93
2019-03-24T01:10:37.851Z,1023.92
2019-03-24T01:11:03.970Z,1023.9
2019-03-24T01:11:30.066Z,1023.91
2019-03-24T01:11:56.183Z,1023.93
2019-03-24T01:12:22.287Z,1023.87
2019-03-24T01:12:48.391Z,1023.87
2019-03-24T01:13:14.493Z,1023.86
2019-03-24T01:13:40.606Z,1023.88
2019-03-24T01:14:06.717Z,1023.87
2019-03-24T01:14:32.821Z,1023.88
2019-03-24T01:14:58.931Z,1023.87
2019-03-24T01:15:25.058Z,1023.87
2019-03-24T01:15:52.171Z,1023.88
2019-03-24T01:16:18.316Z,1023.86
2019-03-24T01:16:44.455Z,1023.82
2019-03-24T01:17:10.589Z,1023.82
2019-03-24T01:17:36.701Z,1023.84
2019-03-24T01:18:02.837Z,1023.83
2019-03-24T01:18:28.980Z,1023.81
2019-03-24T01:18:55.080Z,1023.83
2019-03-24T01:19:21.181Z,1023.83
2019-03-24T01:19:47.340Z,1023.81
2019-03-24T01:20:13.400Z,1023.82
2019-03-24T01:20:39.505Z,1023.81
2019-03-24T01:21:05.620Z,1023.8
2019-03-24T01:21:31.724Z,1023.79
2019-03-24T01:21:57.836Z,1023.84
2019-03-24T01:22:23.947Z,1023.77
2019-03-24T01:22:50.085Z,1023.83
2019-03-24T01:23:16.188Z,1023.81
2019-03-24T01:23:42.294Z,1023.81
2019-03-24T01:24:08.399Z,1023.81
2019-03-24T01:24:34.509Z,1023.81
2019-03-24T01:25:00.608Z,1023.78
2019-03-24T01:25:26.737Z,1023.79
2019-03-24T01:25:52.904Z,1023.82
2019-03-24T01:26:19.020Z,1023.8
2019-03-24T01:26:45.121Z,1023.79
2019-03-24T01:27:11.229Z,1023.8
2019-03-24T01:27:37.340Z,1023.79
2019-03-24T01:28:03.447Z,1023.77
2019-03-24T01:28:29.586Z,1023.8
2019-03-24T01:28:55.717Z,1023.81
2019-03-24T01:29:21.854Z,1023.78
2019-03-24T01:29:47.961Z,1023.81
2019-03-24T01:30:14.099Z,1023.82
2019-03-24T01:30:40.202Z,1023.76
2019-03-24T01:31:06.310Z,1023.78
2019-03-24T01:31:32.420Z,1023.79
2019-03-24T01:31:58.550Z,1023.84
2019-03-24T01:32:24.660Z,1023.86
2019-03-24T01:32:50.767Z,1023.79
2019-03-24T01:33:16.871Z,1023.8
2019-03-24T01:33:42.981Z,1023.81
2019-03-24T01:34:09.117Z,1023.83
2019-03-24T01:34:35.222Z,1023.86
2019-03-24T01:35:01.337Z,1023.83
2019-03-24T01:35:27.442Z,1023.9
2019-03-24T01:35:53.555Z,1023.8
2019-03-24T01:36:19.654Z,1023.82
2019-03-24T01:36:45.760Z,1023.85
2019-03-24T01:37:11.871Z,1023.81
2019-03-24T01:37:37.993Z,1023.83
2019-03-24T01:38:04.121Z,1023.84
2019-03-24T01:38:30.260Z,1023.83
2019-03-24T01:38:56.387Z,1023.81
2019-03-24T01:39:22.496Z,1023.85
2019-03-24T01:39:48.606Z,1023.83
2019-03-24T01:40:14.718Z,1023.82
2019-03-24T01:40:40.827Z,1023.81
2019-03-24T01:41:08.036Z,1023.81
2019-03-24T01:41:34.027Z,1023.81
2019-03-24T01:42:00.136Z,1023.79
2019-03-24T01:42:26.248Z,1023.79
2019-03-24T01:42:52.346Z,1023.81
2019-03-24T01:43:18.455Z,1023.77
2019-03-24T01:43:44.586Z,1023.75
2019-03-24T01:44:10.699Z,1023.77
2019-03-24T01:44:36.806Z,1023.77
2019-03-24T01:45:02.914Z,1023.72
2019-03-24T01:45:29.059Z,1023.73
2019-03-24T01:45:58.724Z,1023.73
2019-03-24T01:46:23.277Z,1023.75
2019-03-24T01:46:49.384Z,1023.7
2019-03-24T01:47:15.496Z,1023.75
2019-03-24T01:47:41.658Z,1023.72
2019-03-24T01:48:07.769Z,1023.73
2019-03-24T01:48:33.870Z,1023.72
2019-03-24T01:49:00.009Z,1023.74
2019-03-24T01:49:26.150Z,1023.75
2019-03-24T01:49:52.292Z,1023.74
2019-03-24T01:50:18.398Z,1023.77
2019-03-24T01:50:44.499Z,1023.74
2019-03-24T01:51:10.616Z,1023.73
2019-03-24T01:51:36.715Z,1023.74
2019-03-24T01:52:02.828Z,1023.73
2019-03-24T01:52:28.929Z,1023.74
2019-03-24T01:52:55.049Z,1023.73
2019-03-24T01:53:21.180Z,1023.75
2019-03-24T01:53:47.318Z,1023.74
2019-03-24T01:54:13.432Z,1023.72
2019-03-24T01:54:39.573Z,1023.72
2019-03-24T01:55:05.677Z,1023.71
2019-03-24T01:55:31.786Z,1023.67
2019-03-24T01:55:57.899Z,1023.69
2019-03-24T01:56:24.000Z,1023.66
2019-03-24T01:56:50.102Z,1023.67
2019-03-24T01:57:16.221Z,1023.64
2019-03-24T01:57:42.320Z,1023.65
2019-03-24T01:58:08.427Z,1023.65
2019-03-24T01:58:34.536Z,1023.65
2019-03-24T01:59:00.639Z,1023.62
2019-03-24T01:59:26.746Z,1023.66
2019-03-24T01:59:52.859Z,1023.68
2019-03-24T02:00:18.967Z,1023.65
2019-03-24T02:00:45.108Z,1023.65
2019-03-24T02:01:11.214Z,1023.66
2019-03-24T02:01:37.350Z,1023.65
2019-03-24T02:02:03.454Z,1023.66
2019-03-24T02:02:29.567Z,1023.63
2019-03-24T02:02:55.668Z,1023.64
2019-03-24T02:03:21.804Z,1023.62
2019-03-24T02:03:47.913Z,1023.63
2019-03-24T02:04:14.025Z,1023.63
2019-03-24T02:04:40.157Z,1023.65
2019-03-24T02:05:06.258Z,1023.67
2019-03-24T02:05:32.364Z,1023.64
2019-03-24T02:05:58.478Z,1023.62
2019-03-24T02:06:24.596Z,1023.62
2019-03-24T02:06:50.693Z,1023.6
2019-03-24T02:07:16.798Z,1023.6
2019-03-24T02:07:42.899Z,1023.56
2019-03-24T02:08:09.013Z,1023.59
2019-03-24T02:08:35.121Z,1023.58
2019-03-24T02:09:01.228Z,1023.58
2019-03-24T02:09:27.369Z,1023.56
2019-03-24T02:09:53.478Z,1023.55
2019-03-24T02:10:19.586Z,1023.55
2019-03-24T02:10:45.685Z,1023.53
2019-03-24T02:11:11.793Z,1023.53
2019-03-24T02:11:37.892Z,1023.52
2019-03-24T02:12:04.018Z,1023.56
2019-03-24T02:12:30.158Z,1023.56
2019-03-24T02:12:56.268Z,1023.46
2019-03-24T02:13:22.377Z,1023.53
2019-03-24T02:13:48.510Z,1023.53
2019-03-24T02:14:14.620Z,1023.49
2019-03-24T02:14:40.724Z,1023.5
2019-03-24T02:15:06.835Z,1023.54
2019-03-24T02:15:32.947Z,1023.51
2019-03-24T02:16:08.943Z,1023.51
2019-03-24T02:16:26.171Z,1023.46
2019-03-24T02:16:52.280Z,1023.5
2019-03-24T02:17:19.373Z,1023.52
2019-03-24T02:17:45.480Z,1023.45
2019-03-24T02:18:11.586Z,1023.53
2019-03-24T02:18:37.703Z,1023.51
2019-03-24T02:19:03.801Z,1023.46
2019-03-24T02:19:29.917Z,1023.51
2019-03-24T02:19:56.021Z,1023.5
2019-03-24T02:20:22.133Z,1023.51
2019-03-24T02:20:48.233Z,1023.52
2019-03-24T02:21:14.340Z,1023.49
2019-03-24T02:21:40.446Z,1023.51
2019-03-24T02:22:06.589Z,1023.51
2019-03-24T02:22:32.719Z,1023.48
2019-03-24T02:22:58.858Z,1023.49
2019-03-24T02:23:24.965Z,1023.48
2019-03-24T02:23:51.108Z,1023.48
2019-03-24T02:24:17.222Z,1023.46
2019-03-24T02:24:43.331Z,1023.48
2019-03-24T02:25:09.469Z,1023.49
2019-03-24T02:25:35.570Z,1023.48
2019-03-24T02:26:01.680Z,1023.48
2019-03-24T02:26:27.784Z,1023.47
2019-03-24T02:26:53.894Z,1023.46
2019-03-24T02:27:20.004Z,1023.46
2019-03-24T02:27:46.111Z,1023.5
2019-03-24T02:28:12.244Z,1023.42
2019-03-24T02:28:38.461Z,1023.45
2019-03-24T02:29:04.595Z,1023.43
2019-03-24T02:29:30.729Z,1023.42
2019-03-24T02:29:56.831Z,1023.42
2019-03-24T02:30:22.943Z,1023.39
2019-03-24T02:30:49.058Z,1023.39
2019-03-24T02:31:15.194Z,1023.39
2019-03-24T02:31:41.327Z,1023.39
2019-03-24T02:32:07.468Z,1023.37
2019-03-24T02:32:33.620Z,1023.37
2019-03-24T02:32:59.756Z,1023.39
2019-03-24T02:33:25.865Z,1023.39
2019-03-24T02:33:52.000Z,1023.37
2019-03-24T02:34:18.111Z,1023.35
2019-03-24T02:34:44.254Z,1023.37
2019-03-24T02:35:10.421Z,1023.41
2019-03-24T02:35:36.527Z,1023.36
2019-03-24T02:36:02.673Z,1023.39
2019-03-24T02:36:28.869Z,1023.38
2019-03-24T02:36:55.032Z,1023.38
2019-03-24T02:37:21.194Z,1023.4
2019-03-24T02:37:47.396Z,1023.4
2019-03-24T02:38:13.498Z,1023.38
2019-03-24T02:38:39.635Z,1023.37
2019-03-24T02:39:05.798Z,1023.37
2019-03-24T02:39:31.919Z,1023.37
2019-03-24T02:39:58.047Z,1023.38
2019-03-24T02:40:24.241Z,1023.37
2019-03-24T02:40:50.379Z,1023.35
2019-03-24T02:41:16.515Z,1023.36
2019-03-24T02:41:42.622Z,1023.31
2019-03-24T02:42:08.779Z,1023.35
2019-03-24T02:42:34.943Z,1023.36
2019-03-24T02:43:01.105Z,1023.34
2019-03-24T02:43:27.217Z,1023.37
2019-03-24T02:43:53.314Z,1023.36
2019-03-24T02:44:19.421Z,1023.35
2019-03-24T02:44:45.549Z,1023.32
2019-03-24T02:45:11.700Z,1023.33
2019-03-24T02:45:37.832Z,1023.32
2019-03-24T02:46:03.996Z,1023.39
2019-03-24T02:46:31.137Z,1023.37
2019-03-24T02:46:57.250Z,1023.34
2019-03-24T02:47:23.414Z,1023.37
2019-03-24T02:47:49.525Z,1023.37
2019-03-24T02:48:15.689Z,1023.38
2019-03-24T02:48:41.797Z,1023.41
2019-03-24T02:49:07.908Z,1023.41
2019-03-24T02:49:34.014Z,1023.36
2019-03-24T02:50:00.478Z,1023.36
2019-03-24T02:50:26.629Z,1023.36
2019-03-24T02:50:52.795Z,1023.36
2019-03-24T02:51:18.957Z,1023.36
2019-03-24T02:51:45.099Z,1023.35
2019-03-24T02:52:11.239Z,1023.33
2019-03-24T02:52:37.385Z,1023.35
2019-03-24T02:53:03.533Z,1023.34
2019-03-24T02:53:29.661Z,1023.28
2019-03-24T02:53:55.813Z,1023.31
2019-03-24T02:54:21.919Z,1023.31
2019-03-24T02:54:48.034Z,1023.31
2019-03-24T02:55:14.162Z,1023.28
2019-03-24T02:55:40.304Z,1023.31
2019-03-24T02:56:06.412Z,1023.28
2019-03-24T02:56:32.524Z,1023.3
2019-03-24T02:56:58.626Z,1023.3
2019-03-24T02:57:24.815Z,1023.31
2019-03-24T02:57:50.984Z,1023.3
2019-03-24T02:58:17.151Z,1023.31
2019-03-24T02:58:43.260Z,1023.27
2019-03-24T02:59:09.396Z,1023.28
2019-03-24T02:59:35.569Z,1023.27
2019-03-24T03:00:01.680Z,1023.25
2019-03-24T03:00:27.882Z,1023.28
2019-03-24T03:00:54.018Z,1023.29
2019-03-24T03:01:20.151Z,1023.28
2019-03-24T03:01:46.286Z,1023.26
2019-03-24T03:02:12.491Z,1023.24
2019-03-24T03:02:38.661Z,1023.24
2019-03-24T03:03:04.792Z,1023.25
2019-03-24T03:03:30.919Z,1023.25
2019-03-24T03:03:57.057Z,1023.21
2019-03-24T03:04:23.280Z,1023.21
2019-03-24T03:04:49.378Z,1023.2
2019-03-24T03:05:15.541Z,1023.18
2019-03-24T03:05:41.711Z,1023.2
2019-03-24T03:06:07.835Z,1023.17
2019-03-24T03:06:33.942Z,1023.2
2019-03-24T03:07:00.075Z,1023.21
2019-03-24T03:07:26.175Z,1023.2
2019-03-24T03:07:52.288Z,1023.2
2019-03-24T03:08:18.447Z,1023.21
2019-03-24T03:08:44.622Z,1023.18
2019-03-24T03:09:10.779Z,1023.19
2019-03-24T03:09:36.952Z,1023.17
2019-03-24T03:10:03.058Z,1023.17
2019-03-24T03:10:29.217Z,1023.21
2019-03-24T03:10:55.386Z,1023.18
2019-03-24T03:11:21.551Z,1023.2
2019-03-24T03:11:47.657Z,1023.2
2019-03-24T03:12:13.817Z,1023.19
2019-03-24T03:12:39.987Z,1023.18
2019-03-24T03:13:07.135Z,1023.18
2019-03-24T03:13:33.278Z,1023.16
2019-03-24T03:13:59.408Z,1023.16
2019-03-24T03:14:25.513Z,1023.18
2019-03-24T03:14:51.645Z,1023.19
2019-03-24T03:15:17.901Z,1023.17
2019-03-24T03:15:44.047Z,1023.18
2019-03-24T03:16:10.157Z,1023.23
2019-03-24T03:16:38.555Z,1023.18
2019-03-24T03:17:04.374Z,1023.2
2019-03-24T03:17:30.503Z,1023.19
2019-03-24T03:17:56.610Z,1023.2
2019-03-24T03:18:22.741Z,1023.14
2019-03-24T03:18:48.879Z,1023.19
2019-03-24T03:19:15.009Z,1023.16
2019-03-24T03:19:41.124Z,1023.14
2019-03-24T03:20:08.221Z,1023.11
2019-03-24T03:20:34.364Z,1023.15
2019-03-24T03:21:00.495Z,1023.13
2019-03-24T03:21:26.641Z,1023.16
2019-03-24T03:21:52.765Z,1023.17
2019-03-24T03:22:18.932Z,1023.13
2019-03-24T03:22:45.042Z,1023.15
2019-03-24T03:23:11.150Z,1023.19
2019-03-24T03:23:37.334Z,1023.14
2019-03-24T03:24:03.443Z,1023.16
2019-03-24T03:24:29.605Z,1023.11
2019-03-24T03:24:55.742Z,1023.14
2019-03-24T03:25:21.842Z,1023.11
2019-03-24T03:25:47.950Z,1023.14
2019-03-24T03:26:14.147Z,1023.15
2019-03-24T03:26:40.289Z,1023.15
2019-03-24T03:27:06.419Z,1023.15
2019-03-24T03:27:32.525Z,1023.13
2019-03-24T03:27:58.662Z,1023.14
2019-03-24T03:28:24.770Z,1023.14
2019-03-24T03:28:50.911Z,1023.16
2019-03-24T03:29:17.043Z,1023.14
2019-03-24T03:29:43.154Z,1023.12
2019-03-24T03:30:09.322Z,1023.13
2019-03-24T03:30:35.462Z,1023.14
2019-03-24T03:31:01.610Z,1023.16
2019-03-24T03:31:27.748Z,1023.15
2019-03-24T03:31:53.904Z,1023.16
2019-03-24T03:32:20.074Z,1023.15
2019-03-24T03:32:46.276Z,1023.14
2019-03-24T03:33:12.414Z,1023.14
2019-03-24T03:33:38.534Z,1023.17
2019-03-24T03:34:04.783Z,1023.17
2019-03-24T03:34:31.055Z,1023.15
2019-03-24T03:34:57.349Z,1023.15
2019-03-24T03:35:23.599Z,1023.17
2019-03-24T03:35:49.759Z,1023.12
2019-03-24T03:36:15.863Z,1023.14
2019-03-24T03:36:42.052Z,1023.14
2019-03-24T03:37:08.195Z,1023.1
2019-03-24T03:37:34.384Z,1023.1
2019-03-24T03:38:00.550Z,1023.11
2019-03-24T03:38:26.662Z,1023.13
2019-03-24T03:38:52.803Z,1023.09
2019-03-24T03:39:18.951Z,1023.09
2019-03-24T03:39:45.100Z,1023.08
2019-03-24T03:40:12.564Z,1023.06
2019-03-24T03:40:38.753Z,1023.07
2019-03-24T03:41:04.902Z,1023.07
2019-03-24T03:41:31.044Z,1023.05
2019-03-24T03:41:57.204Z,1023.02
2019-03-24T03:42:23.339Z,1023.02
2019-03-24T03:42:49.538Z,1023.08
2019-03-24T03:43:15.644Z,1023.03
2019-03-24T03:43:41.778Z,1023.03
2019-03-24T03:44:07.911Z,1023
2019-03-24T03:44:34.028Z,1023
2019-03-24T03:45:00.394Z,1023.01
2019-03-24T03:45:26.526Z,1023
2019-03-24T03:45:53.621Z,1023.01
2019-03-24T03:46:19.795Z,1022.98
2019-03-24T03:46:52.181Z,1023
2019-03-24T03:47:13.138Z,1023.03
2019-03-24T03:47:39.245Z,1022.97
2019-03-24T03:48:05.373Z,1022.98
2019-03-24T03:48:31.480Z,1023.02
2019-03-24T03:48:57.617Z,1023
2019-03-24T03:49:23.778Z,1023.03
2019-03-24T03:49:49.916Z,1023.02
2019-03-24T03:50:16.238Z,1022.99
2019-03-24T03:50:42.346Z,1022.97
2019-03-24T03:51:08.477Z,1022.95
2019-03-24T03:51:34.635Z,1022.95
2019-03-24T03:52:00.815Z,1022.95
2019-03-24T03:52:26.972Z,1022.95
2019-03-24T03:52:53.082Z,1022.95
2019-03-24T03:53:19.224Z,1022.93
2019-03-24T03:53:45.357Z,1022.96
2019-03-24T03:54:12.452Z,1022.96
2019-03-24T03:54:38.626Z,1022.98
2019-03-24T03:55:04.814Z,1022.97
2019-03-24T03:55:30.982Z,1022.99
2019-03-24T03:55:57.090Z,1022.96
2019-03-24T03:56:23.263Z,1022.91
2019-03-24T03:56:49.364Z,1022.95
2019-03-24T03:57:15.470Z,1022.96
2019-03-24T03:57:41.697Z,1022.95
2019-03-24T03:58:07.800Z,1022.95
2019-03-24T03:58:33.975Z,1022.93
2019-03-24T03:59:00.102Z,1022.93
2019-03-24T03:59:26.259Z,1022.94
2019-03-24T03:59:52.350Z,1022.94
2019-03-24T04:00:18.495Z,1022.92
2019-03-24T04:00:44.602Z,1022.96
2019-03-24T04:01:10.762Z,1022.93
2019-03-24T04:01:36.908Z,1022.94
2019-03-24T04:02:03.033Z,1022.95
2019-03-24T04:02:29.201Z,1022.9
2019-03-24T04:02:55.302Z,1022.94
2019-03-24T04:03:21.434Z,1022.9
2019-03-24T04:03:47.570Z,1022.92
2019-03-24T04:04:13.705Z,1022.93
2019-03-24T04:04:39.833Z,1022.9
2019-03-24T04:05:05.972Z,1022.86
2019-03-24T04:05:32.084Z,1022.87
2019-03-24T04:05:58.225Z,1022.86
2019-03-24T04:06:24.445Z,1022.85
2019-03-24T04:06:50.607Z,1022.88
2019-03-24T04:07:16.741Z,1022.82
2019-03-24T04:07:42.877Z,1022.83
2019-03-24T04:08:09.088Z,1022.86
2019-03-24T04:08:35.209Z,1022.82
2019-03-24T04:09:01.400Z,1022.87
2019-03-24T04:09:27.545Z,1022.84
2019-03-24T04:09:53.688Z,1022.86
2019-03-24T04:10:19.805Z,1022.85
2019-03-24T04:10:45.977Z,1022.88
2019-03-24T04:11:12.133Z,1022.86
2019-03-24T04:11:38.285Z,1022.89
2019-03-24T04:12:04.422Z,1022.86
2019-03-24T04:12:30.577Z,1022.88
2019-03-24T04:12:56.688Z,1022.85
2019-03-24T04:13:22.854Z,1022.83
2019-03-24T04:13:49.036Z,1022.84
2019-03-24T04:14:15.214Z,1022.83
2019-03-24T04:14:41.375Z,1022.81
2019-03-24T04:15:07.491Z,1022.83
2019-03-24T04:15:33.649Z,1022.81
2019-03-24T04:15:59.762Z,1022.82
2019-03-24T04:16:25.884Z,1022.79
2019-03-24T04:17:05.563Z,1022.79
2019-03-24T04:17:20.185Z,1022.77
2019-03-24T04:17:46.292Z,1022.76
2019-03-24T04:18:12.443Z,1022.8
2019-03-24T04:18:38.601Z,1022.8
2019-03-24T04:19:04.770Z,1022.79
2019-03-24T04:19:30.940Z,1022.75
2019-03-24T04:19:57.092Z,1022.8
2019-03-24T04:20:23.241Z,1022.78
2019-03-24T04:20:49.433Z,1022.73
2019-03-24T04:21:15.549Z,1022.79
2019-03-24T04:21:41.708Z,1022.76
2019-03-24T04:22:07.848Z,1022.73
2019-03-24T04:22:33.987Z,1022.74
2019-03-24T04:23:00.089Z,1022.75
2019-03-24T04:23:26.574Z,1022.75
2019-03-24T04:23:53.503Z,1022.77
2019-03-24T04:24:19.804Z,1022.72
2019-03-24T04:24:46.034Z,1022.76
2019-03-24T04:25:12.171Z,1022.73
2019-03-24T04:25:38.312Z,1022.75
2019-03-24T04:26:04.480Z,1022.77
2019-03-24T04:26:30.588Z,1022.81
2019-03-24T04:26:56.772Z,1022.72
2019-03-24T04:27:22.892Z,1022.78
2019-03-24T04:27:49.057Z,1022.75
2019-03-24T04:28:15.167Z,1022.71
2019-03-24T04:28:41.277Z,1022.74
2019-03-24T04:29:07.404Z,1022.76
2019-03-24T04:29:33.599Z,1022.76
2019-03-24T04:29:59.732Z,1022.75
2019-03-24T04:30:25.873Z,1022.75
2019-03-24T04:30:52.039Z,1022.77
2019-03-24T04:31:18.205Z,1022.75
2019-03-24T04:31:44.338Z,1022.75
2019-03-24T04:32:10.446Z,1022.76
2019-03-24T04:32:36.591Z,1022.78
2019-03-24T04:33:02.678Z,1022.75
2019-03-24T04:33:28.842Z,1022.78
2019-03-24T04:33:55.031Z,1022.8
2019-03-24T04:34:21.174Z,1022.76
2019-03-24T04:34:47.343Z,1022.78
2019-03-24T04:35:13.449Z,1022.8
2019-03-24T04:35:39.614Z,1022.8
2019-03-24T04:36:05.725Z,1022.77
2019-03-24T04:36:31.889Z,1022.8
2019-03-24T04:36:58.001Z,1022.79
2019-03-24T04:37:24.135Z,1022.77
2019-03-24T04:37:50.330Z,1022.8
2019-03-24T04:38:16.471Z,1022.82
2019-03-24T04:38:42.611Z,1022.79
2019-03-24T04:39:08.716Z,1022.82
2019-03-24T04:39:34.885Z,1022.8
2019-03-24T04:40:00.987Z,1022.79
2019-03-24T04:40:27.125Z,1022.82
2019-03-24T04:40:53.236Z,1022.8
2019-03-24T04:41:19.339Z,1022.79
2019-03-24T04:41:45.456Z,1022.8
2019-03-24T04:42:11.576Z,1022.78
2019-03-24T04:42:37.717Z,1022.79
2019-03-24T04:43:03.857Z,1022.8
2019-03-24T04:43:29.956Z,1022.8
2019-03-24T04:43:56.098Z,1022.81
2019-03-24T04:44:22.233Z,1022.8
2019-03-24T04:44:48.339Z,1022.82
2019-03-24T04:45:14.447Z,1022.81
2019-03-24T04:45:40.571Z,1022.8
2019-03-24T04:46:06.684Z,1022.77
2019-03-24T04:46:32.786Z,1022.79
2019-03-24T04:46:58.885Z,1022.79
2019-03-24T04:47:26.007Z,1022.8
2019-03-24T04:47:52.119Z,1022.81
2019-03-24T04:48:18.260Z,1022.82
2019-03-24T04:48:44.363Z,1022.81
2019-03-24T04:49:10.494Z,1022.82
2019-03-24T04:49:36.599Z,1022.81
2019-03-24T04:50:02.761Z,1022.8
2019-03-24T04:50:28.870Z,1022.83
2019-03-24T04:50:54.981Z,1022.8
2019-03-24T04:51:21.088Z,1022.83
2019-03-24T04:51:47.191Z,1022.81
2019-03-24T04:52:13.302Z,1022.82
2019-03-24T04:52:39.415Z,1022.78
2019-03-24T04:53:05.526Z,1022.78
2019-03-24T04:53:31.630Z,1022.82
2019-03-24T04:53:57.767Z,1022.81
2019-03-24T04:54:23.874Z,1022.8
2019-03-24T04:54:49.985Z,1022.82
2019-03-24T04:55:16.092Z,1022.83
2019-03-24T04:55:42.198Z,1022.79
2019-03-24T04:56:08.303Z,1022.79
2019-03-24T04:56:34.443Z,1022.84
2019-03-24T04:57:00.551Z,1022.81
2019-03-24T04:57:26.659Z,1022.78
2019-03-24T04:57:52.795Z,1022.79
2019-03-24T04:58:18.949Z,1022.78
2019-03-24T04:58:45.057Z,1022.8
2019-03-24T04:59:11.166Z,1022.8
2019-03-24T04:59:37.259Z,1022.76
2019-03-24T05:00:03.366Z,1022.81
2019-03-24T05:00:29.469Z,1022.76
2019-03-24T05:00:55.579Z,1022.8
2019-03-24T05:01:21.686Z,1022.8
2019-03-24T05:01:47.841Z,1022.79
2019-03-24T05:02:13.971Z,1022.76
2019-03-24T05:02:40.108Z,1022.76
2019-03-24T05:03:06.205Z,1022.76
2019-03-24T05:03:32.345Z,1022.78
2019-03-24T05:03:58.452Z,1022.79
2019-03-24T05:04:24.558Z,1022.78
2019-03-24T05:04:50.663Z,1022.78
2019-03-24T05:05:16.771Z,1022.76
2019-03-24T05:05:42.871Z,1022.77
2019-03-24T05:06:08.982Z,1022.73
2019-03-24T05:06:35.118Z,1022.74
2019-03-24T05:07:01.226Z,1022.74
2019-03-24T05:07:27.365Z,1022.73
2019-03-24T05:07:53.472Z,1022.71
2019-03-24T05:08:19.579Z,1022.71
2019-03-24T05:08:45.687Z,1022.73
2019-03-24T05:09:11.789Z,1022.73
2019-03-24T05:09:37.925Z,1022.71
2019-03-24T05:10:04.058Z,1022.71
2019-03-24T05:10:30.163Z,1022.69
2019-03-24T05:10:56.283Z,1022.7
2019-03-24T05:11:22.390Z,1022.69
2019-03-24T05:11:48.495Z,1022.74
2019-03-24T05:12:14.597Z,1022.71
2019-03-24T05:12:40.725Z,1022.73
2019-03-24T05:13:06.837Z,1022.72
2019-03-24T05:13:32.943Z,1022.72
2019-03-24T05:13:59.050Z,1022.67
2019-03-24T05:14:25.178Z,1022.75
2019-03-24T05:14:51.283Z,1022.74
2019-03-24T05:15:17.420Z,1022.75
2019-03-24T05:15:43.530Z,1022.76
2019-03-24T05:16:09.635Z,1022.75
2019-03-24T05:16:35.746Z,1022.77
2019-03-24T05:17:01.878Z,1022.74
2019-03-24T05:17:29.965Z,1022.77
2019-03-24T05:17:56.065Z,1022.78